Time;durP1;ratioP1;P1;durP2;ratioP2;P2;SDS_P1;SDS_P2;PMS_P1;PMS_P2;Temp;Humidity;BMP_temperature;BMP_pressure;BME280_temperature;BME280_humidity;BME280_pressure;Samples;Min_cycle;Max_cycle;Signal;HPM_P1;HPM_P2
2023/10/27 00:00:11;;;;;;;8.10;3.40;;;23.10;71.20;;;;;;221898;1265;22525;-56
2023/10/27 00:05:35;;;;;;;5.10;3.50;;;23.00;70.90;;;;;;221765;1267;22510;-57
2023/10/27 00:10:42;;;;;;;4.30;3.20;;;23.00;70.90;;;;;;221777;1270;22521;-57
2023/10/27 00:15:47;;;;;;;4.70;3.20;;;23.00;71.20;;;;;;221815;1270;22529;-58
2023/10/27 00:20:51;;;;;;;6.20;3.80;;;22.90;71.30;;;;;;221958;1266;24039;-57
2023/10/27 00:25:55;;;;;;;4.50;3.40;;;22.90;70.70;;;;;;221738;1267;25476;-56
2023/10/27 00:31:00;;;;;;;5.20;3.50;;;22.90;71.00;;;;;;227266;1259;22523;-56
2023/10/27 00:36:06;;;;;;;4.90;3.10;;;23.00;70.40;;;;;;223606;1270;23329;-56
2023/10/27 00:41:10;;;;;;;6.30;3.30;;;22.90;70.30;;;;;;222004;1270;22579;-57
2023/10/27 00:46:14;;;;;;;5.00;3.60;;;22.80;70.70;;;;;;222142;1270;25308;-59
2023/10/27 00:51:19;;;;;;;6.80;3.50;;;22.80;70.70;;;;;;221821;1266;24377;-58
2023/10/27 00:56:25;;;;;;;6.20;3.70;;;22.70;70.90;;;;;;221969;1270;22730;-57
2023/10/27 01:01:30;;;;;;;4.40;3.20;;;22.70;71.40;;;;;;222383;1266;22550;-58
2023/10/27 01:06:34;;;;;;;3.90;3.50;;;22.60;71.00;;;;;;222013;1258;22524;-57
2023/10/27 01:11:40;;;;;;;6.80;3.60;;;22.60;71.40;;;;;;221876;1268;22515;-57
2023/10/27 01:16:44;;;;;;;4.40;3.30;;;22.60;71.10;;;;;;221789;1270;24247;-59
2023/10/27 01:21:48;;;;;;;7.20;3.20;;;22.60;71.10;;;;;;221956;1270;22520;-56
2023/10/27 01:26:52;;;;;;;3.30;3.00;;;22.60;71.70;;;;;;222233;1270;25347;-57
2023/10/27 01:31:56;;;;;;;5.80;3.40;;;22.90;70.80;;;;;;222200;1269;24240;-58
2023/10/27 01:37:00;;;;;;;4.20;3.10;;;23.20;70.00;;;;;;221731;1268;22513;-59
2023/10/27 01:42:05;;;;;;;3.80;3.40;;;23.50;68.40;;;;;;221831;1268;23940;-58
2023/10/27 01:47:09;;;;;;;5.10;3.20;;;23.60;68.20;;;;;;222091;1266;22526;-57
2023/10/27 01:52:14;;;;;;;4.60;2.90;;;23.70;68.30;;;;;;221787;1270;22515;-58
2023/10/27 01:57:18;;;;;;;6.90;3.80;;;23.70;67.70;;;;;;221882;1262;27796;-58
2023/10/27 02:02:23;;;;;;;5.90;3.70;;;23.70;67.70;;;;;;221845;1268;24971;-57
2023/10/27 02:07:27;;;;;;;5.10;3.50;;;23.70;67.70;;;;;;222210;1270;22528;-59
2023/10/27 02:12:31;;;;;;;5.10;2.90;;;23.70;67.80;;;;;;222177;1247;24054;-57
2023/10/27 02:17:37;;;;;;;4.10;2.90;;;23.80;67.50;;;;;;221868;1270;22521;-57
2023/10/27 02:22:42;;;;;;;6.80;3.30;;;23.90;67.70;;;;;;229853;1267;23035;-57
2023/10/27 02:27:46;;;;;;;3.30;2.90;;;23.90;66.90;;;;;;224019;1266;22670;-58
2023/10/27 02:32:51;;;;;;;5.10;2.90;;;24.00;66.10;;;;;;223206;1267;23878;-57
2023/10/27 02:37:55;;;;;;;4.20;3.00;;;23.90;66.80;;;;;;223610;1270;24328;-57
2023/10/27 02:43:00;;;;;;;3.70;3.10;;;23.80;67.20;;;;;;221912;1262;23534;-56
2023/10/27 02:48:05;;;;;;;4.40;3.30;;;23.60;67.50;;;;;;221963;1270;23021;-57
2023/10/27 02:53:10;;;;;;;4.40;3.00;;;23.60;69.10;;;;;;221790;1270;24350;-57
2023/10/27 02:58:14;;;;;;;4.80;3.20;;;23.70;68.30;;;;;;221892;1270;22653;-55
2023/10/27 03:03:18;;;;;;;4.40;3.00;;;23.60;68.30;;;;;;221997;1257;22597;-59
2023/10/27 03:08:22;;;;;;;8.70;3.10;;;23.40;68.70;;;;;;221962;1257;22561;-57
2023/10/27 03:13:27;;;;;;;3.20;2.90;;;23.30;68.40;;;;;;221801;1270;23147;-56
2023/10/27 03:18:32;;;;;;;3.20;2.90;;;23.20;68.60;;;;;;222210;1266;22605;-56
2023/10/27 03:23:36;;;;;;;3.90;2.80;;;23.20;69.10;;;;;;222064;1259;25629;-59
2023/10/27 03:28:42;;;;;;;5.10;3.30;;;23.10;68.70;;;;;;221920;1269;22633;-58
2023/10/27 03:33:46;;;;;;;3.40;2.80;;;23.00;68.90;;;;;;221936;1267;24200;-58
2023/10/27 03:38:53;;;;;;;4.60;3.20;;;23.00;68.90;;;;;;221839;1267;25305;-57
2023/10/27 03:43:57;;;;;;;2.70;2.50;;;23.00;69.00;;;;;;221994;1263;23000;-57
2023/10/27 03:49:02;;;;;;;3.20;2.90;;;22.90;69.00;;;;;;221757;1264;22549;-57
2023/10/27 03:54:09;;;;;;;3.80;3.30;;;22.90;69.10;;;;;;222017;1267;22547;-57
2023/10/27 03:59:19;;;;;;;3.30;2.80;;;22.80;69.20;;;;;;221994;1270;22521;-59
2023/10/27 04:04:23;;;;;;;2.70;2.50;;;22.80;69.60;;;;;;222047;1247;22665;-56
2023/10/27 04:09:27;;;;;;;4.00;3.00;;;22.80;69.10;;;;;;221981;1255;25271;-58
2023/10/27 04:14:31;;;;;;;3.50;3.20;;;22.80;69.30;;;;;;221785;1256;24199;-57
2023/10/27 04:19:36;;;;;;;3.40;3.10;;;22.70;69.20;;;;;;221924;1267;22976;-58
2023/10/27 04:24:40;;;;;;;3.10;2.80;;;22.70;69.40;;;;;;222044;1264;22510;-58
2023/10/27 04:29:44;;;;;;;3.30;2.90;;;22.60;69.40;;;;;;221710;1266;23623;-57
2023/10/27 04:34:51;;;;;;;4.30;3.00;;;22.50;69.50;;;;;;222108;1248;25338;-59
2023/10/27 04:40:02;;;;;;;4.00;3.00;;;22.60;69.60;;;;;;222142;1254;22657;-57
2023/10/27 04:45:13;;;;;;;3.20;2.80;;;22.60;69.40;;;;;;222053;1257;24221;-56
2023/10/27 04:50:22;;;;;;;4.30;3.20;;;22.90;69.10;;;;;;221960;1264;22529;-58
2023/10/27 04:55:28;;;;;;;4.20;2.90;;;23.20;68.50;;;;;;221977;1263;22524;-57
2023/10/27 05:00:40;;;;;;;3.40;2.70;;;23.40;67.30;;;;;;221795;1270;22625;-57
2023/10/27 05:05:53;;;;;;;3.30;2.80;;;23.70;66.30;;;;;;222083;1264;22639;-56
2023/10/27 05:11:09;;;;;;;2.80;2.60;;;23.70;66.60;;;;;;221903;1264;22622;-57
2023/10/27 05:16:21;;;;;;;3.40;3.10;;;23.70;66.30;;;;;;221980;1264;24199;-57
2023/10/27 05:21:33;;;;;;;2.90;2.60;;;23.70;65.80;;;;;;222116;1263;22560;-58
2023/10/27 05:26:46;;;;;;;3.20;2.80;;;23.70;65.90;;;;;;222114;1254;22520;-57
2023/10/27 05:31:57;;;;;;;3.80;2.60;;;23.80;65.70;;;;;;222301;1264;25284;-57
2023/10/27 05:37:09;;;;;;;4.20;2.50;;;23.90;65.60;;;;;;222428;1264;22600;-57
2023/10/27 05:42:22;;;;;;;6.00;3.00;;;23.90;65.70;;;;;;222352;1266;25446;-58
2023/10/27 05:47:36;;;;;;;5.10;2.70;;;23.80;66.00;;;;;;222244;1264;25284;-62
2023/10/27 05:52:48;;;;;;;6.00;3.00;;;23.70;66.30;;;;;;222117;1264;22634;-59
2023/10/27 05:57:56;;;;;;;4.00;2.80;;;23.80;66.60;;;;;;222062;1269;26529;-60
2023/10/27 06:03:14;;;;;;;4.90;2.90;;;23.70;66.80;;;;;;221883;1270;24502;-57
2023/10/27 06:08:41;;;;;;;3.90;2.40;;;23.70;66.60;;;;;;222103;1264;26219;-60
2023/10/27 06:13:53;;;;;;;8.60;2.90;;;23.70;66.60;;;;;;222146;1255;22572;-60
2023/10/27 06:18:57;;;;;;;3.90;2.50;;;23.70;67.20;;;;;;221858;1263;22529;-57
2023/10/27 06:24:03;;;;;;;5.10;3.10;;;23.60;67.20;;;;;;222771;1260;22526;-58
2023/10/27 06:29:07;;;;;;;6.70;2.80;;;23.50;67.20;;;;;;222204;1270;24393;-58
2023/10/27 06:34:11;;;;;;;3.90;2.70;;;23.50;67.10;;;;;;222107;1258;22531;-58
2023/10/27 06:39:15;;;;;;;9.90;4.70;;;23.40;67.20;;;;;;222042;1268;24199;-58
2023/10/27 06:44:20;;;;;;;4.50;3.90;;;23.30;68.50;;;;;;222119;1270;22553;-59
2023/10/27 06:49:25;;;;;;;9.30;3.60;;;23.30;68.30;;;;;;222029;1264;22689;-58
2023/10/27 06:54:29;;;;;;;8.80;3.40;;;23.30;68.40;;;;;;222014;1263;25412;-57
2023/10/27 06:59:35;;;;;;;3.30;3.00;;;23.20;68.30;;;;;;221645;1270;25302;-60
2023/10/27 07:04:39;;;;;;;4.20;3.00;;;23.10;68.60;;;;;;222056;1264;24269;-55
2023/10/27 07:09:44;;;;;;;4.00;3.10;;;23.10;68.50;;;;;;221958;1264;22525;-59
2023/10/27 07:14:48;;;;;;;5.30;3.10;;;23.10;68.70;;;;;;221865;1270;24393;-57
2023/10/27 07:19:52;;;;;;;6.20;3.40;;;23.00;68.40;;;;;;221978;1264;25241;-61
2023/10/27 07:24:57;;;;;;;5.70;3.10;;;23.10;68.10;;;;;;221781;1267;23914;-58
2023/10/27 07:30:01;;;;;;;7.20;3.00;;;23.00;68.60;;;;;;223196;1265;22534;-57
2023/10/27 07:35:06;;;;;;;6.50;3.40;;;23.00;68.30;;;;;;221840;1270;24431;-59
2023/10/27 07:40:10;;;;;;;3.60;3.00;;;22.90;68.10;;;;;;221873;1264;22524;-59
2023/10/27 07:45:15;;;;;;;5.40;3.00;;;22.90;68.40;;;;;;222221;1263;22511;-60
2023/10/27 07:50:19;;;;;;;4.70;3.30;;;22.80;68.10;;;;;;222258;1263;22555;-59
2023/10/27 07:55:23;;;;;;;3.10;2.60;;;22.80;68.30;;;;;;221802;1264;22537;-59
2023/10/27 08:00:28;;;;;;;4.30;3.00;;;22.70;68.10;;;;;;221735;1263;22570;-59
2023/10/27 08:05:32;;;;;;;5.60;3.40;;;22.70;68.00;;;;;;221602;1264;22619;-60
2023/10/27 08:10:38;;;;;;;4.30;3.40;;;22.70;68.40;;;;;;221649;1253;24066;-57
2023/10/27 08:15:44;;;;;;;11.40;2.90;;;22.60;68.20;;;;;;221657;1262;237503;-58
2023/10/27 08:20:50;;;;;;;4.60;3.10;;;22.60;68.10;;;;;;221804;1264;24351;-59
2023/10/27 08:25:54;;;;;;;4.00;3.00;;;22.60;68.20;;;;;;221772;1267;25334;-57
2023/10/27 08:30:59;;;;;;;8.70;3.30;;;22.60;68.00;;;;;;221815;1270;22606;-58
2023/10/27 08:36:04;;;;;;;4.00;3.30;;;22.60;68.00;;;;;;222530;1265;22521;-59
2023/10/27 08:41:09;;;;;;;3.60;3.20;;;22.60;68.00;;;;;;222000;1263;24220;-57
2023/10/27 08:46:14;;;;;;;3.30;2.90;;;22.60;67.90;;;;;;221712;1265;25395;-59
2023/10/27 08:51:20;;;;;;;5.20;2.90;;;22.60;68.00;;;;;;221873;1265;22529;-58
2023/10/27 08:56:24;;;;;;;3.50;2.90;;;22.70;67.70;;;;;;222036;1254;23894;-58
2023/10/27 09:01:29;;;;;;;5.80;3.70;;;23.00;66.90;;;;;;222097;1269;23867;-57
2023/10/27 09:06:35;;;;;;;3.80;3.40;;;23.30;66.10;;;;;;221932;1262;22523;-59
2023/10/27 09:11:41;;;;;;;3.60;3.20;;;23.40;65.60;;;;;;221775;1261;22537;-58
2023/10/27 09:16:45;;;;;;;5.30;3.10;;;23.50;65.40;;;;;;221940;1267;22529;-59
2023/10/27 09:21:49;;;;;;;3.40;3.10;;;23.50;65.50;;;;;;221713;1270;22531;-59
2023/10/27 09:26:55;;;;;;;3.70;2.90;;;23.60;65.40;;;;;;221706;1265;22516;-59
2023/10/27 09:31:59;;;;;;;5.30;3.30;;;23.60;65.10;;;;;;222143;1262;24300;-58
2023/10/27 09:37:04;;;;;;;3.80;3.40;;;23.70;64.60;;;;;;221691;1255;22521;-58
2023/10/27 09:42:08;;;;;;;3.20;2.90;;;23.80;64.40;;;;;;221676;1263;25359;-58
2023/10/27 09:47:41;;;;;;;3.30;3.00;;;23.90;64.30;;;;;;221572;1261;22562;-58
2023/10/27 09:52:48;;;;;;;3.80;3.30;;;23.90;64.10;;;;;;221674;1265;24213;-57
2023/10/27 09:57:53;;;;;;;3.50;3.20;;;23.90;65.10;;;;;;221847;1256;22654;-60
2023/10/27 10:02:59;;;;;;;5.10;3.20;;;23.80;65.20;;;;;;221738;1267;22517;-59
2023/10/27 10:08:09;;;;;;;5.50;3.50;;;23.80;65.90;;;;;;221786;1259;23865;-58
2023/10/27 10:13:17;;;;;;;3.30;3.00;;;23.80;65.50;;;;;;222075;1262;22533;-59
2023/10/27 10:18:22;;;;;;;4.30;3.90;;;23.60;65.90;;;;;;221918;1265;22659;-59
2023/10/27 10:24:04;;;;;;;3.70;3.00;;;23.60;66.20;;;;;;222215;1266;22750;-58
2023/10/27 10:29:28;;;;;;;5.30;3.20;;;23.50;66.00;;;;;;221614;1270;24385;-57
2023/10/27 10:34:34;;;;;;;3.80;3.10;;;23.50;65.90;;;;;;222014;1264;22543;-59
2023/10/27 10:40:16;;;;;;;3.40;3.10;;;23.50;65.80;;;;;;221983;1268;22518;-58
2023/10/27 10:45:20;;;;;;;3.80;3.30;;;23.40;65.60;;;;;;222012;1263;24274;-60
2023/10/27 10:50:29;;;;;;;4.20;3.60;;;23.40;65.60;;;;;;222147;1259;24463;-59
2023/10/27 10:55:33;;;;;;;3.40;3.10;;;23.30;65.40;;;;;;221933;1267;22515;-60
2023/10/27 11:00:37;;;;;;;3.60;3.30;;;23.40;65.40;;;;;;222256;1251;25450;-58
2023/10/27 11:05:42;;;;;;;4.20;3.40;;;23.30;65.50;;;;;;222180;1265;24264;-58
2023/10/27 11:10:46;;;;;;;4.20;3.90;;;23.40;65.20;;;;;;221761;1263;22651;-59
2023/10/27 11:15:51;;;;;;;4.50;3.90;;;23.30;65.10;;;;;;222354;1262;25263;-60
2023/10/27 11:20:55;;;;;;;4.10;3.50;;;23.20;65.40;;;;;;221994;1267;25492;-60
2023/10/27 11:26:02;;;;;;;4.10;3.70;;;23.10;65.60;;;;;;222083;1265;22628;-60
2023/10/27 11:31:12;;;;;;;6.20;3.40;;;23.00;65.70;;;;;;222167;1265;22504;-59
2023/10/27 11:36:17;;;;;;;3.70;3.40;;;23.00;65.70;;;;;;222125;1265;22531;-57
2023/10/27 11:41:22;;;;;;;4.40;3.40;;;23.00;65.60;;;;;;222065;1269;22526;-58
2023/10/27 11:46:34;;;;;;;3.40;2.90;;;23.00;65.90;;;;;;222214;1265;22517;-58
2023/10/27 11:51:38;;;;;;;5.30;3.40;;;23.00;65.60;;;;;;222041;1267;23149;-49
2023/10/27 11:56:44;;;;;;;5.80;4.00;;;23.00;65.60;;;;;;222129;1262;24316;-52
2023/10/27 12:01:48;;;;;;;3.60;3.30;;;22.90;65.40;;;;;;221723;1265;25369;-52
2023/10/27 12:06:53;;;;;;;5.40;3.70;;;22.90;65.50;;;;;;221912;1270;25400;-48
2023/10/27 12:11:57;;;;;;;4.50;4.00;;;22.90;65.30;;;;;;221582;1260;24217;-47
2023/10/27 12:17:02;;;;;;;3.80;3.20;;;22.90;65.40;;;;;;222231;1266;22658;-56
2023/10/27 12:22:08;;;;;;;5.20;4.60;;;22.90;65.50;;;;;;222141;1264;24376;-56
2023/10/27 12:27:13;;;;;;;4.30;3.40;;;22.90;65.70;;;;;;222031;1267;23683;-50
2023/10/27 12:32:17;;;;;;;6.10;3.20;;;22.80;65.50;;;;;;222125;1262;22514;-53
2023/10/27 12:37:21;;;;;;;4.20;3.70;;;22.80;66.00;;;;;;221881;1262;22733;-54
2023/10/27 12:42:26;;;;;;;7.30;3.30;;;22.70;66.00;;;;;;221907;1262;22514;-57
2023/10/27 12:47:30;;;;;;;4.20;3.30;;;22.70;66.00;;;;;;221988;1270;22648;-56
2023/10/27 12:52:34;;;;;;;5.60;3.90;;;22.70;66.10;;;;;;221888;1267;22518;-50
2023/10/27 12:57:39;;;;;;;5.40;3.80;;;22.70;66.10;;;;;;221826;1262;25325;-50
2023/10/27 13:02:46;;;;;;;6.60;3.60;;;22.80;66.10;;;;;;222070;1270;24057;-51
2023/10/27 13:07:52;;;;;;;6.90;3.90;;;22.80;66.30;;;;;;222023;1268;22544;-50
2023/10/27 13:13:00;;;;;;;5.40;3.30;;;22.80;66.60;;;;;;222091;1262;24203;-54
2023/10/27 13:18:05;;;;;;;4.70;3.80;;;22.80;66.70;;;;;;222096;1262;26492;-57
2023/10/27 13:23:10;;;;;;;4.10;3.70;;;23.00;67.30;;;;;;222030;1262;22548;-52
2023/10/27 13:28:14;;;;;;;3.80;3.50;;;23.00;67.70;;;;;;221902;1268;22520;-53
2023/10/27 13:33:20;;;;;;;4.00;3.60;;;23.00;67.60;;;;;;221912;1267;22520;-53
2023/10/27 13:38:24;;;;;;;3.80;3.50;;;23.00;67.70;;;;;;221765;1262;22574;-60
2023/10/27 13:43:29;;;;;;;5.00;3.50;;;22.90;67.90;;;;;;222185;1266;24358;-58
2023/10/27 13:48:33;;;;;;;5.40;4.70;;;22.80;67.80;;;;;;222132;1265;22630;-58
2023/10/27 13:53:38;;;;;;;4.60;4.20;;;22.70;68.00;;;;;;222089;1258;22714;-57
2023/10/27 13:58:46;;;;;;;5.20;4.10;;;22.70;67.60;;;;;;222058;1267;22525;-58
2023/10/27 14:03:51;;;;;;;5.30;4.50;;;22.70;67.40;;;;;;222223;1267;22516;-58
2023/10/27 14:08:55;;;;;;;5.40;4.00;;;22.70;66.90;;;;;;221932;1265;22517;-60
2023/10/27 14:14:00;;;;;;;6.00;4.50;;;22.60;66.80;;;;;;221790;1267;22604;-58
2023/10/27 14:19:04;;;;;;;5.40;4.00;;;22.60;66.70;;;;;;222074;1270;23016;-60
2023/10/27 14:24:09;;;;;;;4.20;3.80;;;22.60;66.70;;;;;;222059;1270;22621;-59
2023/10/27 14:29:13;;;;;;;8.30;5.10;;;22.60;66.70;;;;;;221985;1261;24351;-59
2023/10/27 14:34:18;;;;;;;5.20;4.30;;;22.50;66.50;;;;;;222072;1268;22514;-57
2023/10/27 14:39:25;;;;;;;4.80;4.30;;;22.50;66.60;;;;;;221782;1267;24325;-59
2023/10/27 14:44:29;;;;;;;6.00;4.50;;;22.50;66.30;;;;;;221833;1265;24207;-59
2023/10/27 14:49:34;;;;;;;4.50;4.10;;;22.40;66.60;;;;;;222037;1260;22633;-60
2023/10/27 14:54:39;;;;;;;4.90;4.50;;;22.60;66.60;;;;;;222390;1264;22530;-58
2023/10/27 14:59:47;;;;;;;5.00;4.50;;;22.90;65.70;;;;;;221992;1268;22517;-58
2023/10/27 15:04:51;;;;;;;4.40;4.00;;;23.00;65.20;;;;;;222083;1266;22763;-58
2023/10/27 15:09:55;;;;;;;8.40;4.60;;;23.20;64.20;;;;;;221794;1258;26062;-56
2023/10/27 15:15:00;;;;;;;6.20;5.10;;;23.30;63.80;;;;;;222108;1270;23624;-56
2023/10/27 15:20:05;;;;;;;8.30;4.90;;;23.40;63.30;;;;;;222077;1268;23767;-58
2023/10/27 15:25:09;;;;;;;6.10;4.80;;;23.40;63.50;;;;;;222272;1270;22509;-57
2023/10/27 15:30:14;;;;;;;12.40;6.10;;;23.50;64.20;;;;;;222113;1270;22514;-57
2023/10/27 15:35:18;;;;;;;9.80;5.90;;;23.50;65.70;;;;;;222193;1263;26290;-56
2023/10/27 15:40:23;;;;;;;12.10;6.40;;;23.60;68.00;;;;;;222238;1265;22527;-58
2023/10/27 15:45:28;;;;;;;13.50;5.70;;;23.70;65.80;;;;;;222054;1265;25231;-59
2023/10/27 15:50:37;;;;;;;15.20;6.00;;;23.70;66.60;;;;;;221990;1270;25483;-57
2023/10/27 15:55:41;;;;;;;9.30;5.80;;;23.70;68.40;;;;;;222053;1268;22797;-56
2023/10/27 16:00:45;;;;;;;8.20;5.80;;;23.70;68.70;;;;;;221805;1269;24421;-58
2023/10/27 16:05:50;;;;;;;9.30;5.90;;;23.70;67.90;;;;;;222096;1267;22533;-57
2023/10/27 16:10:54;;;;;;;12.60;6.10;;;23.60;67.70;;;;;;221754;1270;25295;-59
2023/10/27 16:16:00;;;;;;;8.10;6.00;;;23.60;67.40;;;;;;221769;1263;22698;-58
2023/10/27 16:21:08;;;;;;;7.10;5.80;;;23.60;66.90;;;;;;222011;1265;22535;-57
2023/10/27 16:26:13;;;;;;;8.90;6.10;;;23.50;66.90;;;;;;222343;1268;24173;-58
2023/10/27 16:31:18;;;;;;;9.70;6.20;;;23.40;66.80;;;;;;222058;1256;22526;-57
2023/10/27 16:36:23;;;;;;;11.10;7.70;;;23.10;67.00;;;;;;221986;1266;22535;-60
2023/10/27 16:41:27;;;;;;;15.00;8.90;;;23.20;66.70;;;;;;222709;1259;22805;-57
2023/10/27 16:46:32;;;;;;;14.30;10.50;;;23.20;66.40;;;;;;222121;1262;22611;-56
2023/10/27 16:51:39;;;;;;;13.50;10.60;;;23.00;66.80;;;;;;221960;1270;25516;-56
2023/10/27 16:56:44;;;;;;;14.80;10.20;;;23.00;66.80;;;;;;221743;1270;22647;-57
2023/10/27 17:01:48;;;;;;;14.00;11.10;;;22.90;67.10;;;;;;221865;1265;22514;-57
2023/10/27 17:06:53;;;;;;;17.20;12.40;;;22.80;67.70;;;;;;222144;1268;24370;-56
2023/10/27 17:12:01;;;;;;;15.90;12.10;;;22.80;67.10;;;;;;222105;1264;22614;-58
2023/10/27 17:17:07;;;;;;;22.70;15.00;;;22.70;67.70;;;;;;222029;1268;24272;-57
2023/10/27 17:22:11;;;;;;;20.70;14.30;;;22.70;67.50;;;;;;222372;1258;25884;-59
2023/10/27 17:27:18;;;;;;;20.60;14.40;;;22.70;68.00;;;;;;222158;1267;22667;-56
2023/10/27 17:32:26;;;;;;;18.40;15.00;;;22.70;68.40;;;;;;222360;1247;23939;-57
2023/10/27 17:37:31;;;;;;;19.80;15.10;;;22.60;68.70;;;;;;222226;1268;22536;-58
2023/10/27 17:42:36;;;;;;;22.70;14.80;;;22.60;69.20;;;;;;222142;1268;25499;-57
2023/10/27 17:47:47;;;;;;;18.00;14.60;;;22.60;68.60;;;;;;222056;1246;23490;-56
2023/10/27 17:52:56;;;;;;;16.20;14.10;;;22.60;69.00;;;;;;222032;1265;24284;-57
2023/10/27 17:58:01;;;;;;;18.20;13.60;;;22.60;69.20;;;;;;222155;1259;23896;-57
2023/10/27 18:03:09;;;;;;;24.30;13.80;;;22.50;68.80;;;;;;222329;1267;26507;-56
2023/10/27 18:08:17;;;;;;;19.50;13.80;;;22.50;69.10;;;;;;222204;1262;26523;-58
2023/10/27 18:13:25;;;;;;;25.70;14.90;;;22.60;69.00;;;;;;221979;1267;25473;-58
2023/10/27 18:18:33;;;;;;;19.30;13.10;;;22.80;69.20;;;;;;222111;1270;24250;-57
2023/10/27 18:23:41;;;;;;;;;;;23.20;67.90;;;;;;221862;1270;24234;-57
2023/10/27 18:28:47;;;;;;;16.20;12.00;;;23.40;67.10;;;;;;222172;1263;22566;-59
2023/10/27 18:33:53;;;;;;;18.00;11.60;;;23.60;66.80;;;;;;222053;1261;24191;-59
2023/10/27 18:39:00;;;;;;;14.50;11.90;;;23.70;66.30;;;;;;222106;1270;22609;-60
2023/10/27 18:44:07;;;;;;;16.90;11.70;;;23.80;66.20;;;;;;222184;1264;22531;-58
2023/10/27 18:49:13;;;;;;;20.90;11.40;;;23.80;66.50;;;;;;222332;1270;23885;-60
2023/10/27 18:54:19;;;;;;;13.00;10.80;;;23.80;66.50;;;;;;222121;1270;25425;-54
2023/10/27 18:59:27;;;;;;;12.80;11.00;;;23.70;66.40;;;;;;222247;1261;24431;-56
2023/10/27 19:04:32;;;;;;;13.90;10.80;;;23.70;66.80;;;;;;222402;1263;25383;-57
2023/10/27 19:09:56;;;;;;;15.50;10.80;;;23.70;67.00;;;;;;222015;1268;22683;-55
2023/10/27 19:15:02;;;;;;;17.40;10.00;;;23.60;67.60;;;;;;222608;1257;23336;-58
2023/10/27 19:20:11;;;;;;;14.80;10.60;;;23.60;67.10;;;;;;221830;1268;23931;-57
2023/10/27 19:25:16;;;;;;;13.00;11.00;;;23.50;67.30;;;;;;221971;1261;22792;-56
2023/10/27 19:30:22;;;;;;;10.50;9.10;;;23.40;66.90;;;;;;221996;1270;24436;-58
2023/10/27 19:35:29;;;;;;;10.90;9.10;;;23.30;67.60;;;;;;222297;1268;24200;-60
2023/10/27 19:40:33;;;;;;;20.50;10.10;;;23.20;67.50;;;;;;222042;1270;24198;-59
2023/10/27 19:45:39;;;;;;;13.30;9.60;;;23.20;68.10;;;;;;222472;1262;22524;-58
2023/10/27 19:50:48;;;;;;;16.70;8.80;;;23.10;68.50;;;;;;222085;1268;25261;-59
2023/10/27 19:55:53;;;;;;;22.30;9.50;;;23.20;67.80;;;;;;221909;1267;24337;-56
2023/10/27 20:01:08;;;;;;;20.90;9.30;;;23.20;69.70;;;;;;221923;1270;24188;-57
2023/10/27 20:06:15;;;;;;;18.20;9.30;;;23.20;69.80;;;;;;222059;1266;25325;-60
2023/10/27 20:11:23;;;;;;;18.20;9.30;;;23.10;70.10;;;;;;222052;1264;25476;-57
2023/10/27 20:16:33;;;;;;;16.50;8.60;;;23.10;70.30;;;;;;221808;1263;445311;-58
2023/10/27 20:21:52;;;;;;;16.30;8.90;;;23.20;70.50;;;;;;222057;1267;24341;-65
2023/10/27 20:26:59;;;;;;;19.30;9.40;;;23.20;70.10;;;;;;222197;1267;22605;-66
2023/10/27 20:32:05;;;;;;;12.00;8.30;;;23.20;70.10;;;;;;222298;1266;25279;-67
2023/10/27 20:37:12;;;;;;;13.70;8.40;;;23.10;70.20;;;;;;221734;1270;22523;-70
2023/10/27 20:42:16;;;;;;;14.10;8.40;;;23.00;70.10;;;;;;222154;1263;22518;-65
2023/10/27 20:47:21;;;;;;;17.00;9.20;;;23.00;69.80;;;;;;221862;1270;24253;-62
2023/10/27 20:52:26;;;;;;;14.30;9.40;;;23.00;69.70;;;;;;221785;1269;22643;-63
2023/10/27 20:57:31;;;;;;;14.00;9.00;;;22.90;69.50;;;;;;222185;1249;22724;-63
2023/10/27 21:02:38;;;;;;;16.90;9.00;;;22.80;69.50;;;;;;222090;1270;22530;-64
2023/10/27 21:07:43;;;;;;;12.30;9.10;;;22.60;70.30;;;;;;222285;1268;24198;-62
2023/10/27 21:12:47;;;;;;;10.70;8.40;;;22.60;69.70;;;;;;222497;1270;24198;-61
2023/10/27 21:17:52;;;;;;;11.20;8.90;;;22.60;69.50;;;;;;222025;1270;22507;-61
2023/10/27 21:22:57;;;;;;;13.10;8.70;;;22.70;69.20;;;;;;221976;1264;22525;-60
2023/10/27 21:28:01;;;;;;;12.60;8.00;;;22.60;69.90;;;;;;222248;1266;22652;-59
2023/10/27 21:33:08;;;;;;;14.30;8.20;;;22.90;68.80;;;;;;221915;1255;22547;-60
2023/10/27 21:38:12;;;;;;;14.60;8.30;;;23.10;68.00;;;;;;221753;1264;22518;-61
2023/10/27 21:43:17;;;;;;;10.30;7.60;;;23.20;67.40;;;;;;222223;1264;24197;-57
2023/10/27 21:48:23;;;;;;;15.00;8.00;;;23.30;66.80;;;;;;221898;1268;22566;-58
2023/10/27 21:53:28;;;;;;;12.10;8.10;;;23.50;69.10;;;;;;221973;1270;23019;-61
2023/10/27 21:58:33;;;;;;;11.30;7.80;;;23.50;66.70;;;;;;221668;1264;22527;-63
2023/10/27 22:03:37;;;;;;;9.80;7.40;;;23.60;66.90;;;;;;222088;1266;22518;-50
2023/10/27 22:08:43;;;;;;;9.90;6.40;;;23.70;66.30;;;;;;222054;1260;24198;-50
2023/10/27 22:13:47;;;;;;;11.10;7.40;;;23.90;66.00;;;;;;222509;1264;25284;-63
2023/10/27 22:18:52;;;;;;;13.20;7.90;;;24.00;65.90;;;;;;222313;1267;22543;-48
2023/10/27 22:23:56;;;;;;;8.90;6.50;;;24.00;65.40;;;;;;221903;1264;24087;-51
2023/10/27 22:29:00;;;;;;;9.30;5.90;;;24.10;65.10;;;;;;221905;1264;22537;-49
2023/10/27 22:34:06;;;;;;;7.70;6.20;;;24.10;65.00;;;;;;221961;1264;22643;-52
2023/10/27 22:39:10;;;;;;;11.00;6.30;;;24.10;65.00;;;;;;222139;1264;23248;-48
2023/10/27 22:44:15;;;;;;;7.80;5.70;;;24.00;65.10;;;;;;222159;1264;22523;-51
2023/10/27 22:49:19;;;;;;;9.70;6.60;;;24.00;65.20;;;;;;221889;1270;23902;-52
2023/10/27 22:54:24;;;;;;;9.30;5.70;;;23.90;65.30;;;;;;222129;1267;22520;-53
2023/10/27 22:59:28;;;;;;;10.30;5.60;;;23.80;65.80;;;;;;222072;1264;24385;-48
2023/10/27 23:04:32;;;;;;;8.40;5.80;;;23.70;66.00;;;;;;221874;1264;24464;-51
2023/10/27 23:09:37;;;;;;;10.40;4.90;;;23.70;65.80;;;;;;221933;1247;22562;-53
2023/10/27 23:14:44;;;;;;;6.00;5.30;;;23.60;66.20;;;;;;222142;1264;24224;-52
2023/10/27 23:19:52;;;;;;;8.80;5.90;;;23.60;66.30;;;;;;222033;1254;22798;-48
2023/10/27 23:24:56;;;;;;;6.00;4.80;;;23.50;66.70;;;;;;222091;1264;25441;-51
2023/10/27 23:30:00;;;;;;;6.30;5.10;;;23.60;66.70;;;;;;221988;1264;25314;-52
2023/10/27 23:35:07;;;;;;;5.80;5.00;;;23.60;66.70;;;;;;222348;1264;23594;-53
2023/10/27 23:40:17;;;;;;;5.70;5.20;;;23.50;67.00;;;;;;222269;1270;22638;-48
2023/10/27 23:45:21;;;;;;;7.10;5.00;;;23.40;67.10;;;;;;222462;1264;24491;-52
2023/10/27 23:50:25;;;;;;;5.40;4.70;;;23.30;67.30;;;;;;221919;1264;25161;-51
2023/10/27 23:55:29;;;;;;;10.50;5.50;;;23.30;67.50;;;;;;222281;1264;27580;-52
